Time;durP1;ratioP1;P1;durP2;ratioP2;P2;SDS_P1;SDS_P2;PMS_P1;PMS_P2;Temp;Humidity;BMP_temperature;BMP_pressure;BME280_temperature;BME280_humidity;BME280_pressure;Samples;Min_cycle;Max_cycle;Signal;HPM_P1;HPM_P2
2022/04/23 00:02:25;;;;;;;80.75;28.27;;;5.90;99.90;;;;;;21223665;27;20084;-50
2022/04/23 00:12:28;;;;;;;49.40;24.65;;;5.90;99.90;;;;;;21223384;27;20100;-48
2022/04/23 00:22:30;;;;;;;54.00;27.10;;;5.90;99.90;;;;;;21221668;27;20396;-51
2022/04/23 00:32:32;;;;;;;58.10;28.48;;;5.90;99.90;;;;;;21221041;27;20115;-57
2022/04/23 00:42:52;;;;;;;65.88;30.98;;;5.90;99.90;;;;;;21208799;27;20056;-52
2022/04/23 00:53:03;;;;;;;96.93;31.90;;;5.90;99.90;;;;;;21186467;27;20035;-50
2022/04/23 01:03:05;;;;;;;162.70;35.80;;;5.90;99.90;;;;;;21150084;28;20061;-52
2022/04/23 01:13:08;;;;;;;372.35;39.63;;;6.00;99.90;;;;;;21141064;27;20104;-52
2022/04/23 01:23:11;;;;;;;112.43;34.25;;;6.10;99.90;;;;;;21159680;27;20058;-52
2022/04/23 01:33:13;;;;;;;74.97;34.42;;;6.00;99.90;;;;;;21217148;27;20031;-48
2022/04/23 01:43:16;;;;;;;240.38;39.13;;;6.00;99.90;;;;;;21150873;27;20077;-48
2022/04/23 01:53:19;;;;;;;211.70;39.10;;;6.00;99.90;;;;;;21104452;28;20044;-52
2022/04/23 02:03:22;;;;;;;503.55;53.38;;;6.00;99.90;;;;;;21070581;28;20035;-52
2022/04/23 02:13:26;;;;;;;570.20;52.70;;;6.00;99.90;;;;;;21129590;28;20474;-52
2022/04/23 02:23:29;;;;;;;537.78;51.88;;;6.00;99.90;;;;;;21128397;28;20089;-56
2022/04/23 02:33:32;;;;;;;482.83;44.33;;;6.00;99.90;;;;;;21128205;28;20545;-50
2022/04/23 02:43:35;;;;;;;429.67;40.22;;;6.10;99.90;;;;;;21121181;28;20508;-51
2022/04/23 02:53:39;;;;;;;456.23;39.38;;;6.10;99.90;;;;;;21184679;28;20035;-49
2022/04/23 03:03:41;;;;;;;818.15;53.08;;;6.00;99.90;;;;;;21212531;28;20050;-51
2022/04/23 03:13:44;;;;;;;527.17;38.63;;;6.00;99.90;;;;;;21203158;27;20560;-48
2022/04/23 03:23:47;;;;;;;587.72;42.78;;;6.00;99.90;;;;;;21204217;27;20035;-52
2022/04/23 03:33:49;;;;;;;706.97;45.42;;;6.00;99.90;;;;;;21227286;27;20092;-51
2022/04/23 03:43:52;;;;;;;786.33;53.70;;;6.00;99.90;;;;;;21219049;27;20047;-52
2022/04/23 03:53:55;;;;;;;903.78;54.05;;;6.00;99.90;;;;;;21182939;27;20100;-50
2022/04/23 04:03:58;;;;;;;944.33;54.72;;;6.00;99.90;;;;;;21165265;27;20039;-52
2022/04/23 04:14:00;;;;;;;936.88;51.47;;;6.00;99.90;;;;;;21222470;27;20039;-50
2022/04/23 04:24:03;;;;;;;1195.88;64.03;;;6.00;99.90;;;;;;21153174;27;20092;-51
2022/04/23 04:34:06;;;;;;;1497.30;81.38;;;5.90;99.90;;;;;;21189828;27;20035;-49
2022/04/23 04:44:08;;;;;;;1213.10;70.45;;;6.00;99.90;;;;;;21154510;27;20404;-52
2022/04/23 04:54:12;;;;;;;1999.90;108.25;;;6.00;99.90;;;;;;21219368;27;20035;-50
2022/04/23 05:04:14;;;;;;;1399.60;81.43;;;5.90;99.90;;;;;;21203313;27;20028;-50
2022/04/23 05:14:18;;;;;;;1447.88;77.10;;;6.00;99.90;;;;;;21149665;27;20090;-59
2022/04/23 05:24:20;;;;;;;1459.90;76.68;;;5.90;99.90;;;;;;21180044;27;20031;-51
2022/04/23 05:34:25;;;;;;;1248.25;69.35;;;6.00;99.90;;;;;;21147630;28;20035;-53
2022/04/23 05:44:28;;;;;;;1473.85;79.78;;;6.00;99.90;;;;;;21126772;28;20081;-53
2022/04/23 05:54:31;;;;;;;101.75;24.98;;;6.20;99.90;;;;;;21183987;27;20043;-52
2022/04/23 06:04:33;;;;;;;635.20;45.65;;;6.20;99.90;;;;;;21194805;27;20108;-52
2022/04/23 06:14:37;;;;;;;957.40;63.92;;;6.50;99.90;;;;;;21214213;27;20110;-51
2022/04/23 06:24:40;;;;;;;1069.15;78.25;;;6.30;99.90;;;;;;21213621;28;20445;-52
2022/04/23 06:34:42;;;;;;;1999.90;154.93;;;6.20;99.90;;;;;;21150977;28;20036;-49
2022/04/23 06:44:45;;;;;;;1744.47;112.82;;;6.20;99.90;;;;;;21160828;28;20131;-50
2022/04/23 06:54:48;;;;;;;1467.13;88.05;;;6.20;99.90;;;;;;21206597;27;20039;-51
2022/04/23 07:04:51;;;;;;;959.90;63.90;;;6.40;99.90;;;;;;21135541;28;20065;-51
2022/04/23 07:14:54;;;;;;;352.23;31.65;;;6.50;99.90;;;;;;21142698;28;20035;-49
2022/04/23 07:24:57;;;;;;;696.13;48.03;;;6.40;99.90;;;;;;21152677;27;20040;-53
2022/04/23 07:45:21;;;;;;;167.90;27.23;;;6.60;99.90;;;;;;21140140;28;20126;-53
2022/04/23 07:55:25;;;;;;;37.90;20.55;;;7.30;99.90;;;;;;21167040;27;20444;-50
2022/04/23 08:05:28;;;;;;;29.13;17.33;;;7.70;99.90;;;;;;21174717;27;20095;-52
2022/04/23 08:15:30;;;;;;;24.55;14.95;;;8.70;99.90;;;;;;21164562;27;20060;-52
2022/04/23 08:25:33;;;;;;;113.50;21.08;;;9.00;99.90;;;;;;21178965;27;20031;-50
2022/04/23 08:35:37;;;;;;;47.63;16.35;;;8.50;99.90;;;;;;21197066;27;20023;-50
2022/04/23 08:45:40;;;;;;;28.88;14.82;;;8.40;99.90;;;;;;21170657;27;20069;-54
2022/04/23 08:55:45;;;;;;;80.22;19.73;;;8.30;99.90;;;;;;21207685;27;20027;-52
2022/04/23 09:05:52;;;;;;;338.00;29.58;;;7.90;99.90;;;;;;21218118;27;20088;-51
2022/04/23 09:26:28;;;;;;;13.00;9.30;;;8.00;99.90;;;;;;21168065;27;20099;-51
2022/04/23 09:36:50;;;;;;;9.32;5.88;;;8.80;99.90;;;;;;21196483;27;20057;-51
2022/04/23 09:46:52;;;;;;;14.50;9.73;;;9.60;99.90;;;;;;21130435;28;20048;-53
2022/04/23 09:56:56;;;;;;;14.10;9.35;;;9.50;99.90;;;;;;21006508;28;20102;-53
2022/04/23 10:07:03;;;;;;;18.08;11.38;;;9.10;99.90;;;;;;21002070;28;20089;-60
2022/04/23 10:17:10;;;;;;;15.13;10.02;;;9.10;99.90;;;;;;20995299;28;20556;-53
2022/04/23 10:27:14;;;;;;;11.77;7.22;;;8.90;99.90;;;;;;20996656;28;20075;-52
2022/04/23 10:37:22;;;;;;;12.95;7.38;;;9.20;99.90;;;;;;21188869;28;20035;-53
2022/04/23 10:47:32;;;;;;;12.10;6.13;;;9.10;99.90;;;;;;21135179;28;20055;-53
2022/04/23 10:57:36;;;;;;;9.98;6.70;;;9.00;99.90;;;;;;21163125;28;20392;-53
2022/04/23 11:18:03;;;;;;;12.27;7.53;;;8.90;99.90;;;;;;21129791;28;20088;-54
2022/04/23 11:28:14;;;;;;;9.73;6.80;;;9.40;99.90;;;;;;21179496;27;20108;-59
2022/04/23 11:38:23;;;;;;;12.13;7.05;;;9.50;99.90;;;;;;21225444;27;20111;-57
2022/04/23 11:48:26;;;;;;;11.95;8.68;;;8.80;99.90;;;;;;21212351;27;20031;-51
2022/04/23 11:58:29;;;;;;;14.80;9.43;;;8.20;99.90;;;;;;21183571;27;20039;-60
2022/04/23 12:08:32;;;;;;;12.00;8.77;;;8.20;99.90;;;;;;21150986;28;20039;-54
2022/04/23 12:18:36;;;;;;;9.30;6.97;;;8.30;99.90;;;;;;21161143;27;20031;-61
2022/04/23 12:49:22;;;;;;;6.38;4.13;;;9.80;99.90;;;;;;21198701;27;20115;-54
2022/04/23 12:59:25;;;;;;;5.18;3.60;;;10.90;99.90;;;;;;21219556;27;20035;-54
2022/04/23 13:09:28;;;;;;;5.72;4.10;;;11.30;99.90;;;;;;21218607;27;20559;-60
2022/04/23 13:19:31;;;;;;;5.60;3.80;;;11.20;99.90;;;;;;21217542;27;20035;-61
2022/04/23 13:29:33;;;;;;;7.20;4.40;;;11.00;99.90;;;;;;21206686;27;20468;-52
2022/04/23 13:39:36;;;;;;;6.13;4.20;;;10.70;99.90;;;;;;21215786;27;20132;-51
2022/04/23 13:49:39;;;;;;;8.32;5.47;;;10.60;99.90;;;;;;21215609;27;20064;-55
2022/04/23 13:59:41;;;;;;;9.27;5.93;;;10.20;99.90;;;;;;21211083;27;20031;-53
2022/04/23 14:20:07;;;;;;;10.27;7.13;;;9.70;99.90;;;;;;21214088;27;20107;-60
2022/04/23 14:30:10;;;;;;;10.70;8.18;;;9.20;99.90;;;;;;21213459;28;20070;-53
2022/04/23 14:40:13;;;;;;;15.73;10.70;;;8.90;99.90;;;;;;21212924;28;20104;-52
2022/04/23 14:50:16;;;;;;;16.27;10.23;;;8.60;99.90;;;;;;21209897;28;20321;-51
2022/04/23 15:00:19;;;;;;;18.80;12.32;;;8.60;99.90;;;;;;21212012;28;20088;-48
2022/04/23 15:10:23;;;;;;;20.65;13.20;;;8.20;99.90;;;;;;21223827;27;20441;-48
2022/04/23 15:20:28;;;;;;;18.70;12.38;;;8.10;99.90;;;;;;21207957;27;20068;-58
2022/04/23 15:30:31;;;;;;;15.02;10.88;;;8.10;99.90;;;;;;21208638;27;20070;-58
2022/04/23 15:40:34;;;;;;;14.43;9.77;;;8.20;99.90;;;;;;21208039;27;20103;-47
2022/04/23 15:50:41;;;;;;;15.63;9.63;;;8.20;99.90;;;;;;20941649;28;20131;-57
2022/04/23 16:00:44;;;;;;;13.23;9.10;;;8.00;99.90;;;;;;20934107;28;20536;-51
2022/04/23 16:10:49;;;;;;;13.75;9.52;;;7.80;99.90;;;;;;20914417;28;20048;-48
2022/04/23 16:20:53;;;;;;;15.20;9.95;;;7.60;99.90;;;;;;20927265;28;20066;-58
2022/04/23 16:30:56;;;;;;;14.45;9.95;;;7.50;99.90;;;;;;21013021;28;20031;-59
2022/04/23 16:51:23;;;;;;;13.98;9.45;;;7.40;99.90;;;;;;21201993;27;20438;-47
2022/04/23 17:01:26;;;;;;;17.77;11.05;;;7.30;99.90;;;;;;21218656;27;20057;-58
2022/04/23 17:11:29;;;;;;;16.35;11.13;;;7.30;99.90;;;;;;21213999;27;20096;-58
2022/04/23 17:21:33;;;;;;;17.20;11.20;;;7.20;99.90;;;;;;21214229;27;20053;-51
2022/04/23 17:31:36;;;;;;;13.65;9.70;;;7.20;99.90;;;;;;21200766;27;20034;-49
2022/04/23 17:41:43;;;;;;;11.02;8.60;;;7.20;99.90;;;;;;21203102;27;20275;-58
2022/04/23 17:51:46;;;;;;;11.95;6.03;;;7.10;99.90;;;;;;21209192;27;20058;-46
2022/04/23 18:12:12;;;;;;;8.30;4.30;;;6.70;99.90;;;;;;21052852;28;20196;-54
2022/04/23 18:22:17;;;;;;;7.53;5.20;;;6.70;99.90;;;;;;21035427;28;20083;-53
2022/04/23 18:32:20;;;;;;;6.68;4.63;;;6.60;99.90;;;;;;21031810;28;20044;-50
2022/04/23 18:42:22;;;;;;;7.53;5.78;;;6.50;99.90;;;;;;21041927;28;20044;-45
2022/04/23 18:52:26;;;;;;;8.13;5.57;;;6.50;99.90;;;;;;21144153;27;20054;-49
2022/04/23 19:02:30;;;;;;;7.45;5.05;;;6.60;99.90;;;;;;21211729;27;20466;-53
2022/04/23 19:12:35;;;;;;;61.22;7.85;;;6.80;99.90;;;;;;21169606;27;20065;-47
2022/04/23 19:32:59;;;;;;;11.20;6.75;;;6.90;99.90;;;;;;21213860;27;20092;-48
2022/04/23 19:43:03;;;;;;;5.88;3.22;;;7.00;99.90;;;;;;21224957;27;20108;-45
2022/04/23 19:53:06;;;;;;;8.50;2.75;;;7.00;99.90;;;;;;21204868;27;20073;-54
2022/04/23 20:03:09;;;;;;;6.32;2.80;;;7.00;99.90;;;;;;21223828;27;20083;-45
2022/04/23 20:13:14;;;;;;;2.53;1.23;;;7.00;99.90;;;;;;21210785;27;20043;-53
2022/04/23 20:23:18;;;;;;;4.25;2.90;;;7.10;99.90;;;;;;21181074;27;20093;-44
2022/04/23 20:33:22;;;;;;;4.53;2.78;;;7.10;99.90;;;;;;21186772;27;20488;-46
2022/04/23 20:43:26;;;;;;;5.03;3.28;;;6.90;99.90;;;;;;21198896;27;20051;-45
2022/04/23 20:53:29;;;;;;;5.50;3.83;;;6.90;99.90;;;;;;21219546;27;20092;-46
2022/04/23 21:03:32;;;;;;;7.70;4.88;;;6.80;99.90;;;;;;21235309;27;20047;-48
2022/04/23 21:13:36;;;;;;;5.50;4.10;;;6.80;99.90;;;;;;21219770;27;20372;-47
2022/04/23 21:23:43;;;;;;;7.07;4.25;;;6.80;99.90;;;;;;21192311;27;20175;-46
2022/04/23 21:33:47;;;;;;;9.48;4.05;;;6.90;99.90;;;;;;21216047;27;20086;-48
2022/04/23 21:54:11;;;;;;;540.63;32.75;;;6.80;99.90;;;;;;21212648;27;20396;-44
2022/04/23 22:04:13;;;;;;;1400.10;68.32;;;6.80;99.90;;;;;;21183110;27;20036;-46
2022/04/23 22:14:16;;;;;;;105.13;5.40;;;6.70;99.90;;;;;;21212938;27;20092;-45
2022/04/23 22:24:21;;;;;;;880.50;46.50;;;6.70;99.90;;;;;;21230592;27;20035;-46
2022/04/23 22:34:23;;;;;;;18.08;2.63;;;6.30;99.90;;;;;;21213229;28;20115;-47
2022/04/23 22:44:27;;;;;;;2.00;0.75;;;6.00;99.90;;;;;;21137905;28;20568;-48
2022/04/23 22:54:30;;;;;;;1.33;0.60;;;5.80;99.90;;;;;;21127555;28;20395;-46
2022/04/23 23:04:33;;;;;;;2.33;0.68;;;5.40;99.90;;;;;;21126723;28;20050;-45
2022/04/23 23:14:35;;;;;;;1.20;0.60;;;5.30;99.90;;;;;;21126815;28;20031;-46
2022/04/23 23:24:38;;;;;;;1.27;0.93;;;5.20;99.90;;;;;;21118973;28;20393;-46
2022/04/23 23:34:41;;;;;;;1.67;0.57;;;5.10;99.90;;;;;;21141197;28;20035;-50
2022/04/23 23:44:44;;;;;;;1.90;0.65;;;4.90;99.90;;;;;;21195111;27;20047;-50
2022/04/23 23:54:47;;;;;;;1.83;0.47;;;4.40;99.90;;;;;;21182359;27;20039;-52
